aviador You're here:

LZTT Decoded Metar

POPRAD in SLOVAKIA
Report Time2018-04-24 02:30:00
UTC Time2018-04-24 02:57:02
Flight Rules vfr VFR
Wind290° at 09 kt
W.Decomp.*RWY 27: 8.7 kt HW 2.5 kt RCW
RWY 25: 7.3 kt HW 5.3 kt RCW
W.Rank290° ranks 8
Current wind is above 290° avg. (5.0)
Visibility9999 m
Phenomena:N/A
Clouds:Few 060 Hf
Expected CloudBase > 800 ft AGL from Temp-Dew spread
CeilingNone
Temp11°C (ISA +1)
Dew Point09°C (88% RH)
AAT7.6°C
QNH1014 hPa
Density Alt2,523 ft
Elevation2,320 ft
Report Wrong Elevation
Raw Report
LZTT 240230Z 29009KT 260V330 9999 FEW060 11/09 Q1014=

Extra information for LZTT:More info

Metar Taf Metar & Taf Last 4 Metars F.Rules Stats Wind Profile Meteogram Temp Stats Airport Information Weather charts Add Link Nearby VenuesMetar ALERT Operation Metar Decoded Social comments